Terminal Aerodrome Forecast
Issued by NWS Mt. Holly, NJ

Home | Current Version | Previous Version | Text Only | Print | Product List | Glossary On
Versions: 1 2 3 4 5 6 7 8 9 10 11 12 13 14 15 16 17 18 19 20 21 22 23 24 25 26 27 28 29 30 31 32 33 34 35
866
FTUS41 KPHI 261005 AAD
TAFPHL
TAF AMD
KPHL 261005Z 2610/2712 28006KT P6SM SCT250
      TEMPO 2610/2612 5SM BR SCT006
     FM261500 29010KT P6SM SCT050
     FM270000 29006KT P6SM SCT250
     FM270400 35004KT P6SM SCT250=

USA.gov is the U.S. government's official web portal to all federal, state and local government web resources and services.